sensor_id;sensor_type;location;lat;lon;timestamp;P1;durP1;ratioP1;P2;durP2;ratioP2
40707;SDS011;26392;42.696;23.350;2022-10-31T00:02:02;7.90;;;3.20;;
40707;SDS011;26392;42.696;23.350;2022-10-31T00:04:27;9.35;;;3.47;;
40707;SDS011;26392;42.696;23.350;2022-10-31T00:06:52;5.88;;;3.72;;
40707;SDS011;26392;42.696;23.350;2022-10-31T00:09:18;7.50;;;3.53;;
40707;SDS011;26392;42.696;23.350;2022-10-31T00:11:43;11.80;;;3.55;;
40707;SDS011;26392;42.696;23.350;2022-10-31T00:14:08;9.73;;;3.78;;
40707;SDS011;26392;42.696;23.350;2022-10-31T00:16:34;10.27;;;4.20;;
40707;SDS011;26392;42.696;23.350;2022-10-31T00:19:00;9.48;;;3.80;;
40707;SDS011;26392;42.696;23.350;2022-10-31T00:21:28;7.95;;;4.28;;
40707;SDS011;26392;42.696;23.350;2022-10-31T00:23:54;9.75;;;4.03;;
40707;SDS011;26392;42.696;23.350;2022-10-31T00:26:20;7.43;;;4.07;;
40707;SDS011;26392;42.696;23.350;2022-10-31T00:28:46;7.65;;;3.60;;
40707;SDS011;26392;42.696;23.350;2022-10-31T00:31:12;7.82;;;3.70;;
40707;SDS011;26392;42.696;23.350;2022-10-31T00:33:38;9.23;;;3.97;;
40707;SDS011;26392;42.696;23.350;2022-10-31T00:36:04;8.48;;;3.95;;
40707;SDS011;26392;42.696;23.350;2022-10-31T00:38:31;6.28;;;3.25;;
40707;SDS011;26392;42.696;23.350;2022-10-31T00:40:57;6.88;;;4.18;;
40707;SDS011;26392;42.696;23.350;2022-10-31T00:43:22;9.90;;;3.95;;
40707;SDS011;26392;42.696;23.350;2022-10-31T00:45:47;8.13;;;3.97;;
40707;SDS011;26392;42.696;23.350;2022-10-31T00:48:13;6.82;;;4.05;;
40707;SDS011;26392;42.696;23.350;2022-10-31T00:50:38;8.45;;;4.57;;
40707;SDS011;26392;42.696;23.350;2022-10-31T00:53:04;10.55;;;4.55;;
40707;SDS011;26392;42.696;23.350;2022-10-31T00:55:30;9.20;;;4.05;;
40707;SDS011;26392;42.696;23.350;2022-10-31T00:57:55;8.43;;;4.15;;
40707;SDS011;26392;42.696;23.350;2022-10-31T01:00:21;8.90;;;4.78;;
40707;SDS011;26392;42.696;23.350;2022-10-31T01:02:46;8.88;;;4.38;;
40707;SDS011;26392;42.696;23.350;2022-10-31T01:05:12;11.23;;;5.13;;
40707;SDS011;26392;42.696;23.350;2022-10-31T01:07:38;9.75;;;4.63;;
40707;SDS011;26392;42.696;23.350;2022-10-31T01:10:05;7.72;;;4.68;;
40707;SDS011;26392;42.696;23.350;2022-10-31T01:12:38;9.32;;;4.38;;
40707;SDS011;26392;42.696;23.350;2022-10-31T01:15:08;12.25;;;4.70;;
40707;SDS011;26392;42.696;23.350;2022-10-31T01:17:35;9.98;;;4.60;;
40707;SDS011;26392;42.696;23.350;2022-10-31T01:20:01;13.73;;;5.72;;
40707;SDS011;26392;42.696;23.350;2022-10-31T01:22:28;12.73;;;5.50;;
40707;SDS011;26392;42.696;23.350;2022-10-31T01:24:53;9.95;;;5.40;;
40707;SDS011;26392;42.696;23.350;2022-10-31T01:27:19;11.75;;;5.13;;
40707;SDS011;26392;42.696;23.350;2022-10-31T01:29:44;12.35;;;7.13;;
40707;SDS011;26392;42.696;23.350;2022-10-31T01:32:10;16.17;;;7.47;;
40707;SDS011;26392;42.696;23.350;2022-10-31T01:34:35;14.55;;;7.25;;
40707;SDS011;26392;42.696;23.350;2022-10-31T01:37:00;12.68;;;7.28;;
40707;SDS011;26392;42.696;23.350;2022-10-31T01:39:26;15.88;;;7.43;;
40707;SDS011;26392;42.696;23.350;2022-10-31T01:41:52;17.23;;;8.10;;
40707;SDS011;26392;42.696;23.350;2022-10-31T01:46:48;14.15;;;7.50;;
40707;SDS011;26392;42.696;23.350;2022-10-31T01:49:22;13.95;;;7.60;;
40707;SDS011;26392;42.696;23.350;2022-10-31T01:51:53;19.17;;;7.60;;
40707;SDS011;26392;42.696;23.350;2022-10-31T01:54:21;17.17;;;8.23;;
40707;SDS011;26392;42.696;23.350;2022-10-31T01:56:51;14.45;;;8.57;;
40707;SDS011;26392;42.696;23.350;2022-10-31T01:59:20;17.02;;;8.10;;
40707;SDS011;26392;42.696;23.350;2022-10-31T02:01:47;18.92;;;7.50;;
40707;SDS011;26392;42.696;23.350;2022-10-31T02:04:15;16.38;;;7.47;;
40707;SDS011;26392;42.696;23.350;2022-10-31T02:06:43;14.50;;;7.68;;
40707;SDS011;26392;42.696;23.350;2022-10-31T02:09:12;16.77;;;7.55;;
40707;SDS011;26392;42.696;23.350;2022-10-31T02:11:40;13.60;;;7.55;;
40707;SDS011;26392;42.696;23.350;2022-10-31T02:14:07;12.32;;;7.25;;
40707;SDS011;26392;42.696;23.350;2022-10-31T02:16:32;15.75;;;8.05;;
40707;SDS011;26392;42.696;23.350;2022-10-31T02:18:58;15.02;;;7.93;;
40707;SDS011;26392;42.696;23.350;2022-10-31T02:21:26;14.98;;;8.50;;
40707;SDS011;26392;42.696;23.350;2022-10-31T02:27:21;16.35;;;8.68;;
40707;SDS011;26392;42.696;23.350;2022-10-31T02:30:03;17.15;;;9.18;;
40707;SDS011;26392;42.696;23.350;2022-10-31T02:32:42;20.20;;;9.13;;
40707;SDS011;26392;42.696;23.350;2022-10-31T02:35:22;20.33;;;9.50;;
40707;SDS011;26392;42.696;23.350;2022-10-31T02:44:06;19.65;;;9.43;;
40707;SDS011;26392;42.696;23.350;2022-10-31T02:49:27;21.67;;;9.98;;
40707;SDS011;26392;42.696;23.350;2022-10-31T02:52:12;21.77;;;10.10;;
40707;SDS011;26392;42.696;23.350;2022-10-31T02:54:58;21.77;;;10.40;;
40707;SDS011;26392;42.696;23.350;2022-10-31T02:57:33;21.65;;;9.95;;
40707;SDS011;26392;42.696;23.350;2022-10-31T03:00:03;19.73;;;9.75;;
40707;SDS011;26392;42.696;23.350;2022-10-31T03:02:39;22.17;;;9.75;;
40707;SDS011;26392;42.696;23.350;2022-10-31T03:13:41;24.52;;;9.15;;
40707;SDS011;26392;42.696;23.350;2022-10-31T03:21:46;23.23;;;9.52;;
40707;SDS011;26392;42.696;23.350;2022-10-31T03:24:17;19.25;;;10.55;;
40707;SDS011;26392;42.696;23.350;2022-10-31T03:26:46;24.33;;;10.95;;
40707;SDS011;26392;42.696;23.350;2022-10-31T03:29:15;17.00;;;10.00;;
40707;SDS011;26392;42.696;23.350;2022-10-31T03:32:00;24.38;;;10.02;;
40707;SDS011;26392;42.696;23.350;2022-10-31T03:34:30;23.80;;;9.32;;
40707;SDS011;26392;42.696;23.350;2022-10-31T03:36:57;19.65;;;8.88;;
40707;SDS011;26392;42.696;23.350;2022-10-31T03:39:26;20.17;;;9.73;;
40707;SDS011;26392;42.696;23.350;2022-10-31T03:41:57;17.45;;;9.13;;
40707;SDS011;26392;42.696;23.350;2022-10-31T03:44:46;23.80;;;9.07;;
40707;SDS011;26392;42.696;23.350;2022-10-31T03:47:16;14.93;;;8.18;;
40707;SDS011;26392;42.696;23.350;2022-10-31T03:49:42;25.92;;;8.93;;
40707;SDS011;26392;42.696;23.350;2022-10-31T03:54:59;18.08;;;8.73;;
40707;SDS011;26392;42.696;23.350;2022-10-31T03:57:34;16.85;;;8.77;;
40707;SDS011;26392;42.696;23.350;2022-10-31T04:02:41;18.00;;;8.55;;
40707;SDS011;26392;42.696;23.350;2022-10-31T04:05:10;18.10;;;9.10;;
40707;SDS011;26392;42.696;23.350;2022-10-31T04:07:39;19.20;;;9.35;;
40707;SDS011;26392;42.696;23.350;2022-10-31T04:10:10;16.60;;;8.70;;
40707;SDS011;26392;42.696;23.350;2022-10-31T04:12:39;18.88;;;8.70;;
40707;SDS011;26392;42.696;23.350;2022-10-31T04:15:07;19.52;;;9.45;;
40707;SDS011;26392;42.696;23.350;2022-10-31T04:17:35;19.52;;;9.07;;
40707;SDS011;26392;42.696;23.350;2022-10-31T04:20:04;17.38;;;9.10;;
40707;SDS011;26392;42.696;23.350;2022-10-31T04:22:30;18.20;;;9.23;;
40707;SDS011;26392;42.696;23.350;2022-10-31T04:24:55;16.85;;;8.50;;
40707;SDS011;26392;42.696;23.350;2022-10-31T04:27:21;16.17;;;8.77;;
40707;SDS011;26392;42.696;23.350;2022-10-31T04:29:46;22.75;;;9.10;;
40707;SDS011;26392;42.696;23.350;2022-10-31T04:32:11;20.48;;;8.40;;
40707;SDS011;26392;42.696;23.350;2022-10-31T04:34:37;18.52;;;8.32;;
40707;SDS011;26392;42.696;23.350;2022-10-31T04:37:02;17.45;;;9.07;;
40707;SDS011;26392;42.696;23.350;2022-10-31T04:39:27;20.23;;;8.77;;
40707;SDS011;26392;42.696;23.350;2022-10-31T04:41:53;21.30;;;10.77;;
40707;SDS011;26392;42.696;23.350;2022-10-31T04:44:18;23.52;;;10.90;;
40707;SDS011;26392;42.696;23.350;2022-10-31T04:46:44;22.50;;;10.45;;
40707;SDS011;26392;42.696;23.350;2022-10-31T04:49:09;23.83;;;10.40;;
40707;SDS011;26392;42.696;23.350;2022-10-31T04:51:34;19.42;;;9.27;;
40707;SDS011;26392;42.696;23.350;2022-10-31T04:54:00;51.38;;;25.30;;
40707;SDS011;26392;42.696;23.350;2022-10-31T04:56:26;38.55;;;18.60;;
40707;SDS011;26392;42.696;23.350;2022-10-31T04:58:51;36.90;;;18.55;;
40707;SDS011;26392;42.696;23.350;2022-10-31T05:01:17;34.88;;;16.85;;
40707;SDS011;26392;42.696;23.350;2022-10-31T05:03:42;35.00;;;17.77;;
40707;SDS011;26392;42.696;23.350;2022-10-31T05:06:08;29.15;;;13.70;;
40707;SDS011;26392;42.696;23.350;2022-10-31T05:08:33;32.17;;;15.45;;
40707;SDS011;26392;42.696;23.350;2022-10-31T05:10:59;25.55;;;13.50;;
40707;SDS011;26392;42.696;23.350;2022-10-31T05:13:26;26.17;;;11.57;;
40707;SDS011;26392;42.696;23.350;2022-10-31T05:15:52;28.08;;;12.77;;
40707;SDS011;26392;42.696;23.350;2022-10-31T05:18:18;29.67;;;12.65;;
40707;SDS011;26392;42.696;23.350;2022-10-31T05:20:43;28.25;;;13.73;;
40707;SDS011;26392;42.696;23.350;2022-10-31T05:23:09;22.88;;;11.30;;
40707;SDS011;26392;42.696;23.350;2022-10-31T05:25:34;32.13;;;14.05;;
40707;SDS011;26392;42.696;23.350;2022-10-31T05:28:00;34.70;;;14.15;;
40707;SDS011;26392;42.696;23.350;2022-10-31T05:30:26;27.75;;;13.90;;
40707;SDS011;26392;42.696;23.350;2022-10-31T05:32:54;36.30;;;14.82;;
40707;SDS011;26392;42.696;23.350;2022-10-31T05:35:20;46.58;;;18.88;;
40707;SDS011;26392;42.696;23.350;2022-10-31T05:37:48;38.85;;;17.10;;
40707;SDS011;26392;42.696;23.350;2022-10-31T05:40:17;44.88;;;17.35;;
40707;SDS011;26392;42.696;23.350;2022-10-31T05:42:44;33.20;;;15.13;;
40707;SDS011;26392;42.696;23.350;2022-10-31T05:45:11;30.42;;;15.30;;
40707;SDS011;26392;42.696;23.350;2022-10-31T05:47:38;24.80;;;12.90;;
40707;SDS011;26392;42.696;23.350;2022-10-31T05:50:04;33.70;;;15.32;;
40707;SDS011;26392;42.696;23.350;2022-10-31T05:52:30;29.88;;;14.45;;
40707;SDS011;26392;42.696;23.350;2022-10-31T05:54:56;25.45;;;13.38;;
40707;SDS011;26392;42.696;23.350;2022-10-31T05:57:21;24.50;;;12.65;;
40707;SDS011;26392;42.696;23.350;2022-10-31T05:59:47;32.10;;;13.98;;
40707;SDS011;26392;42.696;23.350;2022-10-31T06:02:12;28.60;;;13.18;;
40707;SDS011;26392;42.696;23.350;2022-10-31T06:04:37;28.08;;;13.13;;
40707;SDS011;26392;42.696;23.350;2022-10-31T06:07:03;35.40;;;14.00;;
40707;SDS011;26392;42.696;23.350;2022-10-31T06:09:28;24.95;;;12.35;;
40707;SDS011;26392;42.696;23.350;2022-10-31T06:11:53;28.17;;;12.05;;
40707;SDS011;26392;42.696;23.350;2022-10-31T06:14:19;23.98;;;12.43;;
40707;SDS011;26392;42.696;23.350;2022-10-31T06:16:44;27.20;;;13.43;;
40707;SDS011;26392;42.696;23.350;2022-10-31T06:19:10;25.55;;;11.38;;
40707;SDS011;26392;42.696;23.350;2022-10-31T06:21:35;32.28;;;12.50;;
40707;SDS011;26392;42.696;23.350;2022-10-31T06:24:01;27.95;;;11.90;;
40707;SDS011;26392;42.696;23.350;2022-10-31T06:26:26;24.60;;;11.52;;
40707;SDS011;26392;42.696;23.350;2022-10-31T06:28:52;25.63;;;10.77;;
40707;SDS011;26392;42.696;23.350;2022-10-31T06:31:17;22.83;;;10.68;;
40707;SDS011;26392;42.696;23.350;2022-10-31T06:33:42;20.02;;;10.82;;
40707;SDS011;26392;42.696;23.350;2022-10-31T06:36:08;21.73;;;10.32;;
40707;SDS011;26392;42.696;23.350;2022-10-31T06:38:34;20.38;;;10.63;;
40707;SDS011;26392;42.696;23.350;2022-10-31T06:41:04;27.83;;;10.98;;
40707;SDS011;26392;42.696;23.350;2022-10-31T06:43:30;18.02;;;11.18;;
40707;SDS011;26392;42.696;23.350;2022-10-31T06:45:56;18.70;;;10.55;;
40707;SDS011;26392;42.696;23.350;2022-10-31T06:48:21;20.27;;;10.55;;
40707;SDS011;26392;42.696;23.350;2022-10-31T06:50:47;25.88;;;11.27;;
40707;SDS011;26392;42.696;23.350;2022-10-31T06:53:12;14.93;;;9.65;;
40707;SDS011;26392;42.696;23.350;2022-10-31T06:55:39;26.75;;;10.20;;
40707;SDS011;26392;42.696;23.350;2022-10-31T06:58:05;19.42;;;10.10;;
40707;SDS011;26392;42.696;23.350;2022-10-31T07:00:31;21.67;;;9.57;;
40707;SDS011;26392;42.696;23.350;2022-10-31T07:03:00;16.85;;;9.02;;
40707;SDS011;26392;42.696;23.350;2022-10-31T07:05:30;13.45;;;8.30;;
40707;SDS011;26392;42.696;23.350;2022-10-31T07:08:00;15.77;;;9.13;;
40707;SDS011;26392;42.696;23.350;2022-10-31T07:10:32;20.02;;;9.02;;
40707;SDS011;26392;42.696;23.350;2022-10-31T07:12:59;21.40;;;10.25;;
40707;SDS011;26392;42.696;23.350;2022-10-31T07:15:30;22.90;;;10.90;;
40707;SDS011;26392;42.696;23.350;2022-10-31T07:18:02;21.90;;;10.75;;
40707;SDS011;26392;42.696;23.350;2022-10-31T07:20:29;19.10;;;10.02;;
40707;SDS011;26392;42.696;23.350;2022-10-31T07:22:56;20.38;;;10.68;;
40707;SDS011;26392;42.696;23.350;2022-10-31T07:25:22;20.63;;;10.43;;
40707;SDS011;26392;42.696;23.350;2022-10-31T07:27:48;21.85;;;11.38;;
40707;SDS011;26392;42.696;23.350;2022-10-31T07:30:13;18.33;;;11.30;;
40707;SDS011;26392;42.696;23.350;2022-10-31T07:32:43;21.52;;;12.00;;
40707;SDS011;26392;42.696;23.350;2022-10-31T07:35:14;24.13;;;11.63;;
40707;SDS011;26392;42.696;23.350;2022-10-31T07:37:41;21.95;;;12.35;;
40707;SDS011;26392;42.696;23.350;2022-10-31T07:40:07;22.55;;;12.15;;
40707;SDS011;26392;42.696;23.350;2022-10-31T07:42:37;24.33;;;11.75;;
40707;SDS011;26392;42.696;23.350;2022-10-31T07:45:07;29.10;;;13.55;;
40707;SDS011;26392;42.696;23.350;2022-10-31T07:47:52;29.20;;;13.30;;
40707;SDS011;26392;42.696;23.350;2022-10-31T07:50:19;28.08;;;14.32;;
40707;SDS011;26392;42.696;23.350;2022-10-31T07:52:57;28.77;;;13.52;;
40707;SDS011;26392;42.696;23.350;2022-10-31T07:55:33;29.40;;;13.18;;
40707;SDS011;26392;42.696;23.350;2022-10-31T07:58:00;23.10;;;11.90;;
40707;SDS011;26392;42.696;23.350;2022-10-31T08:00:26;24.30;;;12.52;;
40707;SDS011;26392;42.696;23.350;2022-10-31T08:03:02;25.80;;;12.23;;
40707;SDS011;26392;42.696;23.350;2022-10-31T08:05:29;28.63;;;13.40;;
40707;SDS011;26392;42.696;23.350;2022-10-31T08:07:56;21.13;;;12.10;;
40707;SDS011;26392;42.696;23.350;2022-10-31T08:10:23;23.10;;;12.40;;
40707;SDS011;26392;42.696;23.350;2022-10-31T08:12:59;23.90;;;12.27;;
40707;SDS011;26392;42.696;23.350;2022-10-31T08:15:26;19.48;;;11.35;;
40707;SDS011;26392;42.696;23.350;2022-10-31T08:17:53;27.08;;;13.05;;
40707;SDS011;26392;42.696;23.350;2022-10-31T08:20:19;20.95;;;12.23;;
40707;SDS011;26392;42.696;23.350;2022-10-31T08:23:01;25.83;;;13.32;;
40707;SDS011;26392;42.696;23.350;2022-10-31T08:25:29;21.83;;;11.85;;
40707;SDS011;26392;42.696;23.350;2022-10-31T08:27:56;30.40;;;13.05;;
40707;SDS011;26392;42.696;23.350;2022-10-31T08:30:23;24.27;;;12.25;;
40707;SDS011;26392;42.696;23.350;2022-10-31T08:33:07;27.20;;;12.88;;
40707;SDS011;26392;42.696;23.350;2022-10-31T08:35:40;26.42;;;12.10;;
40707;SDS011;26392;42.696;23.350;2022-10-31T08:38:07;21.00;;;12.82;;
40707;SDS011;26392;42.696;23.350;2022-10-31T08:40:34;25.27;;;12.27;;
40707;SDS011;26392;42.696;23.350;2022-10-31T08:45:27;26.13;;;12.50;;
40707;SDS011;26392;42.696;23.350;2022-10-31T08:47:57;21.67;;;12.05;;
40707;SDS011;26392;42.696;23.350;2022-10-31T08:50:25;21.40;;;12.35;;
40707;SDS011;26392;42.696;23.350;2022-10-31T08:52:51;22.48;;;11.43;;
40707;SDS011;26392;42.696;23.350;2022-10-31T08:55:16;19.85;;;11.40;;
40707;SDS011;26392;42.696;23.350;2022-10-31T08:57:41;22.20;;;12.05;;
40707;SDS011;26392;42.696;23.350;2022-10-31T09:00:07;25.58;;;12.25;;
40707;SDS011;26392;42.696;23.350;2022-10-31T09:02:33;23.27;;;12.07;;
40707;SDS011;26392;42.696;23.350;2022-10-31T09:04:58;32.70;;;13.30;;
40707;SDS011;26392;42.696;23.350;2022-10-31T09:07:24;21.85;;;11.88;;
40707;SDS011;26392;42.696;23.350;2022-10-31T09:09:49;24.02;;;12.85;;
40707;SDS011;26392;42.696;23.350;2022-10-31T09:12:15;24.95;;;11.50;;
40707;SDS011;26392;42.696;23.350;2022-10-31T09:14:40;23.77;;;11.43;;
40707;SDS011;26392;42.696;23.350;2022-10-31T09:17:05;18.80;;;11.02;;
40707;SDS011;26392;42.696;23.350;2022-10-31T09:19:31;18.85;;;10.98;;
40707;SDS011;26392;42.696;23.350;2022-10-31T09:21:56;25.92;;;11.30;;
40707;SDS011;26392;42.696;23.350;2022-10-31T09:24:22;23.65;;;11.52;;
40707;SDS011;26392;42.696;23.350;2022-10-31T09:26:47;18.88;;;10.23;;
40707;SDS011;26392;42.696;23.350;2022-10-31T09:29:12;23.20;;;11.25;;
40707;SDS011;26392;42.696;23.350;2022-10-31T09:31:38;23.63;;;11.20;;
40707;SDS011;26392;42.696;23.350;2022-10-31T09:34:03;21.83;;;11.13;;
40707;SDS011;26392;42.696;23.350;2022-10-31T09:36:29;16.23;;;10.07;;
40707;SDS011;26392;42.696;23.350;2022-10-31T09:38:54;16.23;;;10.10;;
40707;SDS011;26392;42.696;23.350;2022-10-31T09:54:44;15.88;;;7.70;;
40707;SDS011;26392;42.696;23.350;2022-10-31T09:59:50;19.27;;;8.82;;
40707;SDS011;26392;42.696;23.350;2022-10-31T10:02:39;16.00;;;8.30;;
40707;SDS011;26392;42.696;23.350;2022-10-31T10:05:12;13.18;;;7.85;;
40707;SDS011;26392;42.696;23.350;2022-10-31T10:13:16;14.45;;;7.43;;
40707;SDS011;26392;42.696;23.350;2022-10-31T10:27:04;14.63;;;7.13;;
40707;SDS011;26392;42.696;23.350;2022-10-31T10:31:57;13.35;;;5.45;;
40707;SDS011;26392;42.696;23.350;2022-10-31T10:34:32;9.30;;;4.85;;
40707;SDS011;26392;42.696;23.350;2022-10-31T10:37:12;9.20;;;5.07;;
40707;SDS011;26392;42.696;23.350;2022-10-31T10:39:50;9.85;;;4.80;;
40707;SDS011;26392;42.696;23.350;2022-10-31T10:42:19;10.50;;;5.18;;
40707;SDS011;26392;42.696;23.350;2022-10-31T10:45:10;13.57;;;5.65;;
40707;SDS011;26392;42.696;23.350;2022-10-31T10:48:04;9.38;;;4.68;;
40707;SDS011;26392;42.696;23.350;2022-10-31T10:50:39;17.80;;;5.25;;
40707;SDS011;26392;42.696;23.350;2022-10-31T10:53:22;9.57;;;5.22;;
40707;SDS011;26392;42.696;23.350;2022-10-31T10:56:07;10.82;;;4.80;;
40707;SDS011;26392;42.696;23.350;2022-10-31T10:58:46;8.70;;;4.93;;
40707;SDS011;26392;42.696;23.350;2022-10-31T11:01:13;15.93;;;4.82;;
40707;SDS011;26392;42.696;23.350;2022-10-31T11:03:40;10.07;;;4.90;;
40707;SDS011;26392;42.696;23.350;2022-10-31T11:06:16;9.68;;;4.93;;
40707;SDS011;26392;42.696;23.350;2022-10-31T11:08:50;16.60;;;4.68;;
40707;SDS011;26392;42.696;23.350;2022-10-31T11:13:41;12.10;;;4.38;;
40707;SDS011;26392;42.696;23.350;2022-10-31T11:16:31;7.00;;;3.75;;
40707;SDS011;26392;42.696;23.350;2022-10-31T11:21:37;7.32;;;3.53;;
40707;SDS011;26392;42.696;23.350;2022-10-31T11:24:03;9.48;;;4.07;;
40707;SDS011;26392;42.696;23.350;2022-10-31T11:27:02;9.20;;;4.45;;
40707;SDS011;26392;42.696;23.350;2022-10-31T11:29:35;6.68;;;3.95;;
40707;SDS011;26392;42.696;23.350;2022-10-31T11:32:01;9.23;;;4.85;;
40707;SDS011;26392;42.696;23.350;2022-10-31T11:34:29;8.75;;;3.72;;
40707;SDS011;26392;42.696;23.350;2022-10-31T11:36:56;11.63;;;3.88;;
40707;SDS011;26392;42.696;23.350;2022-10-31T11:39:28;9.73;;;3.53;;
40707;SDS011;26392;42.696;23.350;2022-10-31T11:41:53;5.05;;;3.17;;
40707;SDS011;26392;42.696;23.350;2022-10-31T11:44:20;7.60;;;3.20;;
40707;SDS011;26392;42.696;23.350;2022-10-31T11:46:49;11.60;;;4.10;;
40707;SDS011;26392;42.696;23.350;2022-10-31T11:49:19;8.65;;;4.15;;
40707;SDS011;26392;42.696;23.350;2022-10-31T11:51:47;8.13;;;3.50;;
40707;SDS011;26392;42.696;23.350;2022-10-31T11:54:23;9.02;;;4.18;;
40707;SDS011;26392;42.696;23.350;2022-10-31T11:56:52;8.45;;;4.05;;
40707;SDS011;26392;42.696;23.350;2022-10-31T11:59:18;7.95;;;3.47;;
40707;SDS011;26392;42.696;23.350;2022-10-31T12:01:49;6.75;;;3.97;;
40707;SDS011;26392;42.696;23.350;2022-10-31T12:04:16;8.25;;;3.70;;
40707;SDS011;26392;42.696;23.350;2022-10-31T12:06:43;6.55;;;3.30;;
40707;SDS011;26392;42.696;23.350;2022-10-31T12:09:22;6.60;;;3.15;;
40707;SDS011;26392;42.696;23.350;2022-10-31T12:12:09;6.45;;;3.13;;
40707;SDS011;26392;42.696;23.350;2022-10-31T12:14:46;11.95;;;3.90;;
40707;SDS011;26392;42.696;23.350;2022-10-31T12:23:26;5.53;;;3.05;;
40707;SDS011;26392;42.696;23.350;2022-10-31T12:33:44;10.27;;;3.55;;
40707;SDS011;26392;42.696;23.350;2022-10-31T12:36:21;7.65;;;4.32;;
40707;SDS011;26392;42.696;23.350;2022-10-31T12:41:49;10.52;;;3.67;;
40707;SDS011;26392;42.696;23.350;2022-10-31T12:58:05;5.68;;;3.75;;
40707;SDS011;26392;42.696;23.350;2022-10-31T13:00:36;10.23;;;4.00;;
40707;SDS011;26392;42.696;23.350;2022-10-31T13:03:28;12.00;;;3.80;;
40707;SDS011;26392;42.696;23.350;2022-10-31T13:06:02;36.20;;;5.80;;
40707;SDS011;26392;42.696;23.350;2022-10-31T13:11:22;8.23;;;3.28;;
40707;SDS011;26392;42.696;23.350;2022-10-31T13:16:25;9.75;;;3.83;;
40707;SDS011;26392;42.696;23.350;2022-10-31T13:19:03;5.90;;;3.58;;
40707;SDS011;26392;42.696;23.350;2022-10-31T13:21:42;9.13;;;3.65;;
40707;SDS011;26392;42.696;23.350;2022-10-31T13:24:34;10.85;;;4.30;;
40707;SDS011;26392;42.696;23.350;2022-10-31T13:27:14;7.37;;;3.43;;
40707;SDS011;26392;42.696;23.350;2022-10-31T13:29:49;9.68;;;3.25;;
40707;SDS011;26392;42.696;23.350;2022-10-31T13:32:30;7.03;;;4.00;;
40707;SDS011;26392;42.696;23.350;2022-10-31T13:35:30;6.57;;;3.55;;
40707;SDS011;26392;42.696;23.350;2022-10-31T13:38:45;66.47;;;5.90;;
40707;SDS011;26392;42.696;23.350;2022-10-31T13:41:00;10.35;;;3.47;;
40707;SDS011;26392;42.696;23.350;2022-10-31T13:46:21;18.60;;;9.23;;
40707;SDS011;26392;42.696;23.350;2022-10-31T13:48:49;17.17;;;4.18;;
40707;SDS011;26392;42.696;23.350;2022-10-31T13:51:23;8.27;;;3.20;;
40707;SDS011;26392;42.696;23.350;2022-10-31T13:56:25;15.73;;;3.92;;
40707;SDS011;26392;42.696;23.350;2022-10-31T14:01:34;6.75;;;3.55;;
40707;SDS011;26392;42.696;23.350;2022-10-31T14:06:36;5.65;;;3.22;;
40707;SDS011;26392;42.696;23.350;2022-10-31T14:12:14;45.17;;;5.43;;
40707;SDS011;26392;42.696;23.350;2022-10-31T14:14:54;7.20;;;3.63;;
40707;SDS011;26392;42.696;23.350;2022-10-31T14:17:24;12.88;;;3.92;;
40707;SDS011;26392;42.696;23.350;2022-10-31T14:20:39;16.23;;;4.60;;
40707;SDS011;26392;42.696;23.350;2022-10-31T14:22:49;10.82;;;4.43;;
40707;SDS011;26392;42.696;23.350;2022-10-31T14:25:36;8.02;;;3.90;;
40707;SDS011;26392;42.696;23.350;2022-10-31T14:28:05;9.52;;;4.40;;
40707;SDS011;26392;42.696;23.350;2022-10-31T14:30:54;9.98;;;4.00;;
40707;SDS011;26392;42.696;23.350;2022-10-31T14:33:22;11.20;;;4.63;;
40707;SDS011;26392;42.696;23.350;2022-10-31T14:38:34;13.57;;;4.10;;
40707;SDS011;26392;42.696;23.350;2022-10-31T14:52:10;13.93;;;4.45;;
40707;SDS011;26392;42.696;23.350;2022-10-31T14:54:42;9.40;;;4.00;;
40707;SDS011;26392;42.696;23.350;2022-10-31T14:57:16;9.48;;;3.78;;
40707;SDS011;26392;42.696;23.350;2022-10-31T15:00:16;14.52;;;4.30;;
40707;SDS011;26392;42.696;23.350;2022-10-31T15:05:21;13.70;;;5.07;;
40707;SDS011;26392;42.696;23.350;2022-10-31T15:07:48;14.18;;;6.05;;
40707;SDS011;26392;42.696;23.350;2022-10-31T15:10:22;21.65;;;5.93;;
40707;SDS011;26392;42.696;23.350;2022-10-31T15:13:18;16.73;;;5.47;;
40707;SDS011;26392;42.696;23.350;2022-10-31T15:15:46;16.35;;;6.13;;
40707;SDS011;26392;42.696;23.350;2022-10-31T15:18:30;17.27;;;6.07;;
40707;SDS011;26392;42.696;23.350;2022-10-31T15:20:56;18.92;;;7.90;;
40707;SDS011;26392;42.696;23.350;2022-10-31T15:23:24;23.05;;;6.93;;
40707;SDS011;26392;42.696;23.350;2022-10-31T15:26:00;14.32;;;5.05;;
40707;SDS011;26392;42.696;23.350;2022-10-31T15:28:28;17.48;;;4.78;;
40707;SDS011;26392;42.696;23.350;2022-10-31T15:30:55;14.18;;;4.47;;
40707;SDS011;26392;42.696;23.350;2022-10-31T15:35:55;11.15;;;4.45;;
40707;SDS011;26392;42.696;23.350;2022-10-31T15:38:25;9.00;;;4.05;;
40707;SDS011;26392;42.696;23.350;2022-10-31T15:41:03;14.60;;;5.20;;
40707;SDS011;26392;42.696;23.350;2022-10-31T15:43:44;12.90;;;4.55;;
40707;SDS011;26392;42.696;23.350;2022-10-31T15:46:11;13.02;;;4.75;;
40707;SDS011;26392;42.696;23.350;2022-10-31T15:48:37;16.55;;;5.40;;
40707;SDS011;26392;42.696;23.350;2022-10-31T15:51:03;24.02;;;5.38;;
40707;SDS011;26392;42.696;23.350;2022-10-31T15:53:48;9.68;;;4.38;;
40707;SDS011;26392;42.696;23.350;2022-10-31T15:56:24;13.13;;;3.88;;
40707;SDS011;26392;42.696;23.350;2022-10-31T15:58:53;16.50;;;4.07;;
40707;SDS011;26392;42.696;23.350;2022-10-31T16:01:30;14.05;;;4.72;;
40707;SDS011;26392;42.696;23.350;2022-10-31T16:03:58;9.23;;;4.05;;
40707;SDS011;26392;42.696;23.350;2022-10-31T16:06:24;17.33;;;4.15;;
40707;SDS011;26392;42.696;23.350;2022-10-31T16:08:49;8.00;;;4.63;;
40707;SDS011;26392;42.696;23.350;2022-10-31T16:16:18;15.27;;;5.45;;
40707;SDS011;26392;42.696;23.350;2022-10-31T16:18:45;13.57;;;5.00;;
40707;SDS011;26392;42.696;23.350;2022-10-31T16:21:11;23.00;;;6.88;;
40707;SDS011;26392;42.696;23.350;2022-10-31T16:23:38;19.00;;;5.60;;
40707;SDS011;26392;42.696;23.350;2022-10-31T16:26:09;18.52;;;7.03;;
40707;SDS011;26392;42.696;23.350;2022-10-31T16:28:39;16.00;;;7.45;;
40707;SDS011;26392;42.696;23.350;2022-10-31T16:31:15;44.97;;;19.33;;
40707;SDS011;26392;42.696;23.350;2022-10-31T16:33:40;17.70;;;8.68;;
40707;SDS011;26392;42.696;23.350;2022-10-31T16:36:28;34.67;;;8.00;;
40707;SDS011;26392;42.696;23.350;2022-10-31T16:38:56;23.75;;;7.05;;
40707;SDS011;26392;42.696;23.350;2022-10-31T16:41:23;14.13;;;6.25;;
40707;SDS011;26392;42.696;23.350;2022-10-31T16:43:49;14.93;;;5.97;;
40707;SDS011;26392;42.696;23.350;2022-10-31T16:46:18;23.02;;;6.25;;
40707;SDS011;26392;42.696;23.350;2022-10-31T16:48:48;15.57;;;6.50;;
40707;SDS011;26392;42.696;23.350;2022-10-31T16:51:13;26.10;;;6.55;;
40707;SDS011;26392;42.696;23.350;2022-10-31T16:53:38;32.28;;;7.30;;
40707;SDS011;26392;42.696;23.350;2022-10-31T16:56:04;16.00;;;7.20;;
40707;SDS011;26392;42.696;23.350;2022-10-31T16:58:33;17.38;;;7.22;;
40707;SDS011;26392;42.696;23.350;2022-10-31T17:01:00;20.45;;;6.65;;
40707;SDS011;26392;42.696;23.350;2022-10-31T17:03:26;16.25;;;7.15;;
40707;SDS011;26392;42.696;23.350;2022-10-31T17:05:52;27.27;;;7.53;;
40707;SDS011;26392;42.696;23.350;2022-10-31T17:08:20;22.73;;;8.75;;